sensor_id;sensor_type;location;lat;lon;timestamp;temperature;humidity
66190;DHT22;52992;52.084;5.412;2023-05-19T00:00:03;15.30;45.70
66190;DHT22;52992;52.084;5.412;2023-05-19T00:02:36;15.30;45.80
66190;DHT22;52992;52.084;5.412;2023-05-19T00:05:05;15.20;45.80
66190;DHT22;52992;52.084;5.412;2023-05-19T00:07:32;15.10;45.90
66190;DHT22;52992;52.084;5.412;2023-05-19T00:10:02;15.10;46.20
66190;DHT22;52992;52.084;5.412;2023-05-19T00:12:29;15.10;46.40
66190;DHT22;52992;52.084;5.412;2023-05-19T00:14:56;15.10;46.40
66190;DHT22;52992;52.084;5.412;2023-05-19T00:17:23;15.10;46.40
66190;DHT22;52992;52.084;5.412;2023-05-19T00:19:50;15.10;46.70
66190;DHT22;52992;52.084;5.412;2023-05-19T00:22:18;15.00;46.60
66190;DHT22;52992;52.084;5.412;2023-05-19T00:24:44;15.00;46.80
66190;DHT22;52992;52.084;5.412;2023-05-19T00:27:11;15.00;46.70
66190;DHT22;52992;52.084;5.412;2023-05-19T00:29:38;15.00;46.70
66190;DHT22;52992;52.084;5.412;2023-05-19T00:32:05;14.90;46.90
66190;DHT22;52992;52.084;5.412;2023-05-19T00:34:32;14.90;47.00
66190;DHT22;52992;52.084;5.412;2023-05-19T00:36:59;14.90;47.20
66190;DHT22;52992;52.084;5.412;2023-05-19T00:39:26;14.90;47.30
66190;DHT22;52992;52.084;5.412;2023-05-19T00:41:52;14.90;47.50
66190;DHT22;52992;52.084;5.412;2023-05-19T00:44:19;14.80;47.30
66190;DHT22;52992;52.084;5.412;2023-05-19T00:46:46;14.80;47.30
66190;DHT22;52992;52.084;5.412;2023-05-19T00:49:13;14.80;47.30
66190;DHT22;52992;52.084;5.412;2023-05-19T00:51:40;14.70;47.50
66190;DHT22;52992;52.084;5.412;2023-05-19T00:54:08;14.70;47.60
66190;DHT22;52992;52.084;5.412;2023-05-19T00:56:35;14.70;47.70
66190;DHT22;52992;52.084;5.412;2023-05-19T00:59:02;14.60;47.60
66190;DHT22;52992;52.084;5.412;2023-05-19T01:01:29;14.50;47.90
66190;DHT22;52992;52.084;5.412;2023-05-19T01:03:57;14.50;48.10
66190;DHT22;52992;52.084;5.412;2023-05-19T01:06:25;14.50;48.20
66190;DHT22;52992;52.084;5.412;2023-05-19T01:08:53;14.50;48.40
66190;DHT22;52992;52.084;5.412;2023-05-19T01:11:20;14.50;48.60
66190;DHT22;52992;52.084;5.412;2023-05-19T01:13:47;14.50;48.60
66190;DHT22;52992;52.084;5.412;2023-05-19T01:16:33;14.40;48.80
66190;DHT22;52992;52.084;5.412;2023-05-19T01:30:42;14.20;48.70
66190;DHT22;52992;52.084;5.412;2023-05-19T01:33:11;14.20;48.90
66190;DHT22;52992;52.084;5.412;2023-05-19T01:35:42;14.20;49.10
66190;DHT22;52992;52.084;5.412;2023-05-19T01:38:10;14.10;49.20
66190;DHT22;52992;52.084;5.412;2023-05-19T01:40:39;14.10;49.50
66190;DHT22;52992;52.084;5.412;2023-05-19T01:43:09;14.00;49.70
66190;DHT22;52992;52.084;5.412;2023-05-19T01:45:37;14.00;49.80
66190;DHT22;52992;52.084;5.412;2023-05-19T01:48:05;14.00;49.80
66190;DHT22;52992;52.084;5.412;2023-05-19T01:50:38;14.00;49.80
66190;DHT22;52992;52.084;5.412;2023-05-19T01:53:05;14.00;49.90
66190;DHT22;52992;52.084;5.412;2023-05-19T01:55:45;13.90;49.90
66190;DHT22;52992;52.084;5.412;2023-05-19T02:00:57;13.90;50.00
66190;DHT22;52992;52.084;5.412;2023-05-19T02:11:41;13.80;50.20
66190;DHT22;52992;52.084;5.412;2023-05-19T02:14:13;13.80;50.40
66190;DHT22;52992;52.084;5.412;2023-05-19T02:16:44;13.90;50.50
66190;DHT22;52992;52.084;5.412;2023-05-19T02:19:28;13.80;51.10
66190;DHT22;52992;52.084;5.412;2023-05-19T02:21:56;13.80;50.40
66190;DHT22;52992;52.084;5.412;2023-05-19T02:24:24;13.80;50.50
66190;DHT22;52992;52.084;5.412;2023-05-19T02:26:52;13.80;50.60
66190;DHT22;52992;52.084;5.412;2023-05-19T02:29:19;13.70;50.80
66190;DHT22;52992;52.084;5.412;2023-05-19T02:31:47;13.80;51.00
66190;DHT22;52992;52.084;5.412;2023-05-19T02:34:13;13.70;51.10
66190;DHT22;52992;52.084;5.412;2023-05-19T02:36:41;13.70;50.90
66190;DHT22;52992;52.084;5.412;2023-05-19T02:39:09;13.70;51.00
66190;DHT22;52992;52.084;5.412;2023-05-19T02:41:39;13.70;50.90
66190;DHT22;52992;52.084;5.412;2023-05-19T02:44:07;13.60;50.80
66190;DHT22;52992;52.084;5.412;2023-05-19T02:46:35;13.60;50.80
66190;DHT22;52992;52.084;5.412;2023-05-19T02:49:02;13.50;51.30
66190;DHT22;52992;52.084;5.412;2023-05-19T02:51:29;13.50;51.40
66190;DHT22;52992;52.084;5.412;2023-05-19T02:53:56;13.50;51.40
66190;DHT22;52992;52.084;5.412;2023-05-19T02:56:23;13.50;51.40
66190;DHT22;52992;52.084;5.412;2023-05-19T02:58:50;13.50;51.60
66190;DHT22;52992;52.084;5.412;2023-05-19T03:01:18;13.40;51.50
66190;DHT22;52992;52.084;5.412;2023-05-19T03:03:47;13.40;51.50
66190;DHT22;52992;52.084;5.412;2023-05-19T03:06:14;13.40;51.70
66190;DHT22;52992;52.084;5.412;2023-05-19T03:08:43;13.40;51.60
66190;DHT22;52992;52.084;5.412;2023-05-19T03:11:10;13.30;51.60
66190;DHT22;52992;52.084;5.412;2023-05-19T03:13:37;13.30;51.90
66190;DHT22;52992;52.084;5.412;2023-05-19T03:16:04;13.40;52.00
66190;DHT22;52992;52.084;5.412;2023-05-19T03:18:33;13.30;52.00
66190;DHT22;52992;52.084;5.412;2023-05-19T03:21:00;13.30;52.10
66190;DHT22;52992;52.084;5.412;2023-05-19T03:23:27;13.40;52.30
66190;DHT22;52992;52.084;5.412;2023-05-19T03:25:54;13.30;52.30
66190;DHT22;52992;52.084;5.412;2023-05-19T03:28:22;13.30;52.50
66190;DHT22;52992;52.084;5.412;2023-05-19T03:30:49;13.40;52.50
66190;DHT22;52992;52.084;5.412;2023-05-19T03:33:19;13.40;52.40
66190;DHT22;52992;52.084;5.412;2023-05-19T03:35:46;13.40;52.40
66190;DHT22;52992;52.084;5.412;2023-05-19T03:38:14;13.40;52.60
66190;DHT22;52992;52.084;5.412;2023-05-19T03:40:48;13.40;52.50
66190;DHT22;52992;52.084;5.412;2023-05-19T03:43:15;13.40;52.40
66190;DHT22;52992;52.084;5.412;2023-05-19T03:45:50;13.40;52.30
66190;DHT22;52992;52.084;5.412;2023-05-19T03:48:49;13.40;52.40
66190;DHT22;52992;52.084;5.412;2023-05-19T03:51:19;13.40;52.20
66190;DHT22;52992;52.084;5.412;2023-05-19T03:53:48;13.30;52.20
66190;DHT22;52992;52.084;5.412;2023-05-19T03:56:15;13.30;52.40
66190;DHT22;52992;52.084;5.412;2023-05-19T03:58:43;13.30;52.50
66190;DHT22;52992;52.084;5.412;2023-05-19T04:01:13;13.40;52.50
66190;DHT22;52992;52.084;5.412;2023-05-19T04:03:40;13.40;52.50
66190;DHT22;52992;52.084;5.412;2023-05-19T04:06:07;13.40;52.60
66190;DHT22;52992;52.084;5.412;2023-05-19T04:08:34;13.40;52.60
66190;DHT22;52992;52.084;5.412;2023-05-19T04:11:01;13.40;52.60
66190;DHT22;52992;52.084;5.412;2023-05-19T04:13:29;13.40;52.40
66190;DHT22;52992;52.084;5.412;2023-05-19T04:15:56;13.40;52.30
66190;DHT22;52992;52.084;5.412;2023-05-19T04:18:25;13.40;52.50
66190;DHT22;52992;52.084;5.412;2023-05-19T04:20:54;13.40;52.50
66190;DHT22;52992;52.084;5.412;2023-05-19T04:23:21;13.40;52.30
66190;DHT22;52992;52.084;5.412;2023-05-19T04:25:48;13.40;52.50
66190;DHT22;52992;52.084;5.412;2023-05-19T04:28:15;13.50;52.50
66190;DHT22;52992;52.084;5.412;2023-05-19T04:30:43;13.50;52.40
66190;DHT22;52992;52.084;5.412;2023-05-19T04:33:12;13.50;52.40
66190;DHT22;52992;52.084;5.412;2023-05-19T04:35:39;13.60;52.30
66190;DHT22;52992;52.084;5.412;2023-05-19T04:38:08;13.70;52.40
66190;DHT22;52992;52.084;5.412;2023-05-19T04:40:36;13.70;52.30
66190;DHT22;52992;52.084;5.412;2023-05-19T04:43:03;13.70;52.30
66190;DHT22;52992;52.084;5.412;2023-05-19T04:45:31;13.70;52.30
66190;DHT22;52992;52.084;5.412;2023-05-19T04:48:00;13.70;52.30
66190;DHT22;52992;52.084;5.412;2023-05-19T04:50:27;13.70;52.30
66190;DHT22;52992;52.084;5.412;2023-05-19T04:52:57;13.80;52.30
66190;DHT22;52992;52.084;5.412;2023-05-19T04:55:25;13.80;52.10
66190;DHT22;52992;52.084;5.412;2023-05-19T04:57:52;13.90;53.00
66190;DHT22;52992;52.084;5.412;2023-05-19T05:00:20;13.90;52.20
66190;DHT22;52992;52.084;5.412;2023-05-19T05:02:53;14.00;52.30
66190;DHT22;52992;52.084;5.412;2023-05-19T05:05:24;14.00;52.30
66190;DHT22;52992;52.084;5.412;2023-05-19T05:07:51;14.10;52.50
66190;DHT22;52992;52.084;5.412;2023-05-19T05:10:21;14.20;52.40
66190;DHT22;52992;52.084;5.412;2023-05-19T05:12:48;14.20;52.40
66190;DHT22;52992;52.084;5.412;2023-05-19T05:15:15;14.30;52.30
66190;DHT22;52992;52.084;5.412;2023-05-19T05:17:45;14.30;52.30
66190;DHT22;52992;52.084;5.412;2023-05-19T05:20:12;14.40;52.20
66190;DHT22;52992;52.084;5.412;2023-05-19T05:22:40;14.40;52.10
66190;DHT22;52992;52.084;5.412;2023-05-19T05:25:09;14.50;52.20
66190;DHT22;52992;52.084;5.412;2023-05-19T05:27:37;14.50;53.00
66190;DHT22;52992;52.084;5.412;2023-05-19T05:30:06;14.60;52.30
66190;DHT22;52992;52.084;5.412;2023-05-19T05:32:33;14.70;52.20
66190;DHT22;52992;52.084;5.412;2023-05-19T05:35:02;14.70;52.10
66190;DHT22;52992;52.084;5.412;2023-05-19T05:37:30;14.70;52.10
66190;DHT22;52992;52.084;5.412;2023-05-19T05:39:57;14.80;52.00
66190;DHT22;52992;52.084;5.412;2023-05-19T05:42:24;14.90;52.10
66190;DHT22;52992;52.084;5.412;2023-05-19T05:44:54;15.00;52.00
66190;DHT22;52992;52.084;5.412;2023-05-19T05:47:22;15.10;52.20
66190;DHT22;52992;52.084;5.412;2023-05-19T05:49:49;15.10;52.30
66190;DHT22;52992;52.084;5.412;2023-05-19T05:52:20;15.20;52.10
66190;DHT22;52992;52.084;5.412;2023-05-19T05:54:48;15.40;52.10
66190;DHT22;52992;52.084;5.412;2023-05-19T05:57:17;15.50;52.10
66190;DHT22;52992;52.084;5.412;2023-05-19T05:59:44;15.50;52.20
66190;DHT22;52992;52.084;5.412;2023-05-19T06:02:13;15.50;52.00
66190;DHT22;52992;52.084;5.412;2023-05-19T06:04:40;15.60;51.70
66190;DHT22;52992;52.084;5.412;2023-05-19T06:07:07;15.60;51.60
66190;DHT22;52992;52.084;5.412;2023-05-19T06:09:36;15.70;51.60
66190;DHT22;52992;52.084;5.412;2023-05-19T06:12:05;15.80;51.30
66190;DHT22;52992;52.084;5.412;2023-05-19T06:14:38;15.90;51.10
66190;DHT22;52992;52.084;5.412;2023-05-19T06:17:19;16.00;50.90
66190;DHT22;52992;52.084;5.412;2023-05-19T06:19:46;16.10;50.90
66190;DHT22;52992;52.084;5.412;2023-05-19T06:22:14;16.30;50.90
66190;DHT22;52992;52.084;5.412;2023-05-19T06:24:42;16.40;50.80
66190;DHT22;52992;52.084;5.412;2023-05-19T06:27:09;16.60;50.70
66190;DHT22;52992;52.084;5.412;2023-05-19T06:29:36;16.80;50.50
66190;DHT22;52992;52.084;5.412;2023-05-19T06:32:05;16.90;49.60
66190;DHT22;52992;52.084;5.412;2023-05-19T06:34:33;17.00;49.60
66190;DHT22;52992;52.084;5.412;2023-05-19T06:37:00;17.10;49.50
66190;DHT22;52992;52.084;5.412;2023-05-19T06:39:29;17.20;49.20
66190;DHT22;52992;52.084;5.412;2023-05-19T06:41:56;17.20;49.20
66190;DHT22;52992;52.084;5.412;2023-05-19T06:44:45;17.40;48.70
66190;DHT22;52992;52.084;5.412;2023-05-19T06:47:15;17.50;48.40
66190;DHT22;52992;52.084;5.412;2023-05-19T06:49:44;17.70;47.30
66190;DHT22;52992;52.084;5.412;2023-05-19T06:52:12;17.80;47.00
66190;DHT22;52992;52.084;5.412;2023-05-19T06:54:39;17.80;47.30
66190;DHT22;52992;52.084;5.412;2023-05-19T06:57:08;17.90;47.60
66190;DHT22;52992;52.084;5.412;2023-05-19T06:59:35;18.00;47.10
66190;DHT22;52992;52.084;5.412;2023-05-19T07:02:04;18.20;47.20
66190;DHT22;52992;52.084;5.412;2023-05-19T07:04:31;18.20;46.60
66190;DHT22;52992;52.084;5.412;2023-05-19T07:07:00;18.30;46.40
66190;DHT22;52992;52.084;5.412;2023-05-19T07:09:27;18.40;46.40
66190;DHT22;52992;52.084;5.412;2023-05-19T07:11:55;18.50;45.90
66190;DHT22;52992;52.084;5.412;2023-05-19T07:14:22;18.50;45.50
66190;DHT22;52992;52.084;5.412;2023-05-19T07:16:50;18.60;45.90
66190;DHT22;52992;52.084;5.412;2023-05-19T07:19:17;18.70;45.60
66190;DHT22;52992;52.084;5.412;2023-05-19T07:21:47;18.70;46.10
66190;DHT22;52992;52.084;5.412;2023-05-19T07:24:14;18.70;45.70
66190;DHT22;52992;52.084;5.412;2023-05-19T07:26:41;18.80;45.70
66190;DHT22;52992;52.084;5.412;2023-05-19T07:29:08;19.00;45.50
66190;DHT22;52992;52.084;5.412;2023-05-19T07:31:35;19.10;45.60
66190;DHT22;52992;52.084;5.412;2023-05-19T07:34:02;19.10;44.50
66190;DHT22;52992;52.084;5.412;2023-05-19T07:36:29;19.20;44.40
66190;DHT22;52992;52.084;5.412;2023-05-19T07:38:56;19.30;44.30
66190;DHT22;52992;52.084;5.412;2023-05-19T07:41:23;19.50;43.90
66190;DHT22;52992;52.084;5.412;2023-05-19T07:43:50;19.60;44.70
66190;DHT22;52992;52.084;5.412;2023-05-19T07:46:17;19.70;44.40
66190;DHT22;52992;52.084;5.412;2023-05-19T07:48:44;19.70;43.90
66190;DHT22;52992;52.084;5.412;2023-05-19T07:51:12;19.70;44.20
66190;DHT22;52992;52.084;5.412;2023-05-19T07:53:38;19.80;43.30
66190;DHT22;52992;52.084;5.412;2023-05-19T07:56:05;19.80;42.90
66190;DHT22;52992;52.084;5.412;2023-05-19T07:58:32;19.80;42.40
66190;DHT22;52992;52.084;5.412;2023-05-19T08:00:59;19.90;42.80
66190;DHT22;52992;52.084;5.412;2023-05-19T08:03:26;20.10;42.60
66190;DHT22;52992;52.084;5.412;2023-05-19T08:05:53;20.30;43.30
66190;DHT22;52992;52.084;5.412;2023-05-19T08:08:21;20.50;42.00
66190;DHT22;52992;52.084;5.412;2023-05-19T08:10:47;20.70;41.90
66190;DHT22;52992;52.084;5.412;2023-05-19T08:13:14;20.80;42.00
66190;DHT22;52992;52.084;5.412;2023-05-19T08:15:41;21.00;40.90
66190;DHT22;52992;52.084;5.412;2023-05-19T08:18:08;21.20;40.00
66190;DHT22;52992;52.084;5.412;2023-05-19T08:20:35;21.30;39.80
66190;DHT22;52992;52.084;5.412;2023-05-19T08:23:03;21.40;39.70
66190;DHT22;52992;52.084;5.412;2023-05-19T08:25:30;21.50;40.70
66190;DHT22;52992;52.084;5.412;2023-05-19T08:27:57;21.70;40.30
66190;DHT22;52992;52.084;5.412;2023-05-19T08:30:23;21.90;39.50
66190;DHT22;52992;52.084;5.412;2023-05-19T08:32:50;22.00;38.70
66190;DHT22;52992;52.084;5.412;2023-05-19T08:35:17;22.10;38.20
66190;DHT22;52992;52.084;5.412;2023-05-19T08:37:44;22.30;38.30
66190;DHT22;52992;52.084;5.412;2023-05-19T08:40:16;22.50;37.20
66190;DHT22;52992;52.084;5.412;2023-05-19T08:42:44;22.60;36.90
66190;DHT22;52992;52.084;5.412;2023-05-19T08:45:12;22.70;36.60
66190;DHT22;52992;52.084;5.412;2023-05-19T08:47:40;22.90;36.50
66190;DHT22;52992;52.084;5.412;2023-05-19T08:50:10;22.90;35.40
66190;DHT22;52992;52.084;5.412;2023-05-19T08:52:45;23.00;35.00
66190;DHT22;52992;52.084;5.412;2023-05-19T08:58:11;23.10;33.80
66190;DHT22;52992;52.084;5.412;2023-05-19T09:00:38;23.10;33.80
66190;DHT22;52992;52.084;5.412;2023-05-19T09:03:06;22.90;33.80
66190;DHT22;52992;52.084;5.412;2023-05-19T09:05:48;22.80;33.90
66190;DHT22;52992;52.084;5.412;2023-05-19T09:08:16;22.80;32.40
66190;DHT22;52992;52.084;5.412;2023-05-19T09:10:44;22.60;31.60
66190;DHT22;52992;52.084;5.412;2023-05-19T09:13:10;22.60;31.90
66190;DHT22;52992;52.084;5.412;2023-05-19T09:15:38;22.80;32.50
66190;DHT22;52992;52.084;5.412;2023-05-19T09:18:08;23.00;31.60
66190;DHT22;52992;52.084;5.412;2023-05-19T09:20:41;23.30;31.20
66190;DHT22;52992;52.084;5.412;2023-05-19T09:23:12;23.70;31.10
66190;DHT22;52992;52.084;5.412;2023-05-19T09:28:12;24.10;30.80
66190;DHT22;52992;52.084;5.412;2023-05-19T09:30:39;24.40;29.40
66190;DHT22;52992;52.084;5.412;2023-05-19T09:33:06;24.50;29.80
66190;DHT22;52992;52.084;5.412;2023-05-19T09:35:35;24.70;29.10
66190;DHT22;52992;52.084;5.412;2023-05-19T09:38:02;24.80;27.90
66190;DHT22;52992;52.084;5.412;2023-05-19T09:40:30;25.10;28.00
66190;DHT22;52992;52.084;5.412;2023-05-19T09:42:58;25.20;27.90
66190;DHT22;52992;52.084;5.412;2023-05-19T09:45:27;25.30;26.70
66190;DHT22;52992;52.084;5.412;2023-05-19T09:47:54;25.10;27.40
66190;DHT22;52992;52.084;5.412;2023-05-19T09:50:21;24.90;28.50
66190;DHT22;52992;52.084;5.412;2023-05-19T09:52:48;24.80;28.70
66190;DHT22;52992;52.084;5.412;2023-05-19T09:55:15;24.80;29.10
66190;DHT22;52992;52.084;5.412;2023-05-19T09:57:44;24.70;29.10
66190;DHT22;52992;52.084;5.412;2023-05-19T10:00:12;24.70;28.80
66190;DHT22;52992;52.084;5.412;2023-05-19T10:02:41;24.80;28.40
66190;DHT22;52992;52.084;5.412;2023-05-19T10:05:14;24.90;28.70
66190;DHT22;52992;52.084;5.412;2023-05-19T10:07:43;25.10;28.50
66190;DHT22;52992;52.084;5.412;2023-05-19T10:10:12;25.20;27.30
66190;DHT22;52992;52.084;5.412;2023-05-19T10:12:40;25.40;26.70
66190;DHT22;52992;52.084;5.412;2023-05-19T10:15:11;25.70;27.40
66190;DHT22;52992;52.084;5.412;2023-05-19T10:17:40;25.90;27.00
66190;DHT22;52992;52.084;5.412;2023-05-19T10:20:11;26.20;26.20
66190;DHT22;52992;52.084;5.412;2023-05-19T10:22:40;26.60;26.40
66190;DHT22;52992;52.084;5.412;2023-05-19T10:25:08;27.00;26.60
66190;DHT22;52992;52.084;5.412;2023-05-19T10:27:39;27.40;25.60
66190;DHT22;52992;52.084;5.412;2023-05-19T10:30:18;27.70;26.30
66190;DHT22;52992;52.084;5.412;2023-05-19T10:32:46;28.10;25.60
66190;DHT22;52992;52.084;5.412;2023-05-19T10:46:03;29.80;23.40
66190;DHT22;52992;52.084;5.412;2023-05-19T10:48:34;30.10;22.80
66190;DHT22;52992;52.084;5.412;2023-05-19T10:51:04;30.30;21.20
66190;DHT22;52992;52.084;5.412;2023-05-19T10:53:33;30.30;21.00
66190;DHT22;52992;52.084;5.412;2023-05-19T10:56:01;30.30;20.60
66190;DHT22;52992;52.084;5.412;2023-05-19T11:01:18;30.60;21.30
66190;DHT22;52992;52.084;5.412;2023-05-19T11:03:47;31.40;20.90
66190;DHT22;52992;52.084;5.412;2023-05-19T11:06:34;32.30;20.40
66190;DHT22;52992;52.084;5.412;2023-05-19T11:09:13;33.20;21.00
66190;DHT22;52992;52.084;5.412;2023-05-19T11:11:51;34.00;19.80
66190;DHT22;52992;52.084;5.412;2023-05-19T11:14:22;34.30;19.30
66190;DHT22;52992;52.084;5.412;2023-05-19T11:16:56;34.70;18.70
66190;DHT22;52992;52.084;5.412;2023-05-19T11:19:35;35.20;18.80
66190;DHT22;52992;52.084;5.412;2023-05-19T11:22:12;35.80;18.20
66190;DHT22;52992;52.084;5.412;2023-05-19T11:24:43;35.90;18.00
66190;DHT22;52992;52.084;5.412;2023-05-19T11:27:31;36.10;18.00
66190;DHT22;52992;52.084;5.412;2023-05-19T11:30:00;36.40;16.80
66190;DHT22;52992;52.084;5.412;2023-05-19T11:32:29;36.70;16.00
66190;DHT22;52992;52.084;5.412;2023-05-19T11:34:56;36.80;15.40
66190;DHT22;52992;52.084;5.412;2023-05-19T11:37:24;36.90;15.30
66190;DHT22;52992;52.084;5.412;2023-05-19T11:39:51;37.00;17.20
66190;DHT22;52992;52.084;5.412;2023-05-19T11:42:19;36.90;16.40
66190;DHT22;52992;52.084;5.412;2023-05-19T11:44:46;36.70;16.60
66190;DHT22;52992;52.084;5.412;2023-05-19T11:47:14;36.70;16.50
66190;DHT22;52992;52.084;5.412;2023-05-19T11:49:47;36.90;15.80
66190;DHT22;52992;52.084;5.412;2023-05-19T11:52:14;36.60;15.80
66190;DHT22;52992;52.084;5.412;2023-05-19T11:54:41;36.20;15.40
66190;DHT22;52992;52.084;5.412;2023-05-19T11:57:09;35.50;16.60
66190;DHT22;52992;52.084;5.412;2023-05-19T11:59:39;35.10;16.40
66190;DHT22;52992;52.084;5.412;2023-05-19T12:04:47;35.40;17.10
66190;DHT22;52992;52.084;5.412;2023-05-19T12:07:18;35.60;16.80
66190;DHT22;52992;52.084;5.412;2023-05-19T12:09:46;35.20;17.10
66190;DHT22;52992;52.084;5.412;2023-05-19T12:12:17;35.20;16.70
66190;DHT22;52992;52.084;5.412;2023-05-19T12:14:51;35.10;17.40
66190;DHT22;52992;52.084;5.412;2023-05-19T12:17:19;34.90;17.10
66190;DHT22;52992;52.084;5.412;2023-05-19T12:19:47;34.50;17.50
66190;DHT22;52992;52.084;5.412;2023-05-19T12:22:16;34.50;16.80
66190;DHT22;52992;52.084;5.412;2023-05-19T12:24:44;34.20;17.20
66190;DHT22;52992;52.084;5.412;2023-05-19T12:27:24;33.50;17.10
66190;DHT22;52992;52.084;5.412;2023-05-19T12:29:55;32.80;18.00
66190;DHT22;52992;52.084;5.412;2023-05-19T12:32:28;32.40;18.30
66190;DHT22;52992;52.084;5.412;2023-05-19T12:34:55;32.10;18.90
66190;DHT22;52992;52.084;5.412;2023-05-19T12:37:25;31.80;18.50
66190;DHT22;52992;52.084;5.412;2023-05-19T12:39:54;31.50;18.40
66190;DHT22;52992;52.084;5.412;2023-05-19T12:42:22;31.70;18.10
66190;DHT22;52992;52.084;5.412;2023-05-19T12:44:50;31.80;18.00
66190;DHT22;52992;52.084;5.412;2023-05-19T12:47:19;32.10;18.60
66190;DHT22;52992;52.084;5.412;2023-05-19T12:50:03;32.00;17.90
66190;DHT22;52992;52.084;5.412;2023-05-19T12:52:31;32.10;18.10
66190;DHT22;52992;52.084;5.412;2023-05-19T12:55:02;32.50;18.40
66190;DHT22;52992;52.084;5.412;2023-05-19T12:57:34;33.10;18.40
66190;DHT22;52992;52.084;5.412;2023-05-19T13:00:16;33.20;18.20
66190;DHT22;52992;52.084;5.412;2023-05-19T13:03:03;33.00;18.50
66190;DHT22;52992;52.084;5.412;2023-05-19T13:05:37;32.70;18.00
66190;DHT22;52992;52.084;5.412;2023-05-19T13:08:09;32.70;17.90
66190;DHT22;52992;52.084;5.412;2023-05-19T13:10:38;32.80;18.00
66190;DHT22;52992;52.084;5.412;2023-05-19T13:13:06;32.60;18.20
66190;DHT22;52992;52.084;5.412;2023-05-19T13:15:35;32.10;17.90
66190;DHT22;52992;52.084;5.412;2023-05-19T13:18:04;31.60;18.00
66190;DHT22;52992;52.084;5.412;2023-05-19T13:20:38;30.90;17.80
66190;DHT22;52992;52.084;5.412;2023-05-19T13:23:05;30.00;19.30
66190;DHT22;52992;52.084;5.412;2023-05-19T13:25:33;29.30;19.80
66190;DHT22;52992;52.084;5.412;2023-05-19T13:28:03;28.80;20.40
66190;DHT22;52992;52.084;5.412;2023-05-19T13:30:32;28.60;20.90
66190;DHT22;52992;52.084;5.412;2023-05-19T13:33:00;28.60;20.70
66190;DHT22;52992;52.084;5.412;2023-05-19T13:35:27;28.40;21.00
66190;DHT22;52992;52.084;5.412;2023-05-19T13:37:54;28.20;21.70
66190;DHT22;52992;52.084;5.412;2023-05-19T13:40:21;28.00;21.60
66190;DHT22;52992;52.084;5.412;2023-05-19T13:42:49;27.80;22.00
66190;DHT22;52992;52.084;5.412;2023-05-19T13:45:16;27.60;23.00
66190;DHT22;52992;52.084;5.412;2023-05-19T13:47:44;27.60;23.00
66190;DHT22;52992;52.084;5.412;2023-05-19T13:50:10;27.50;22.60
66190;DHT22;52992;52.084;5.412;2023-05-19T13:52:38;27.30;21.50
66190;DHT22;52992;52.084;5.412;2023-05-19T13:55:05;27.10;21.10
66190;DHT22;52992;52.084;5.412;2023-05-19T13:57:33;26.90;21.80
66190;DHT22;52992;52.084;5.412;2023-05-19T14:00:00;26.80;21.50
66190;DHT22;52992;52.084;5.412;2023-05-19T14:02:38;26.70;21.90
66190;DHT22;52992;52.084;5.412;2023-05-19T14:05:06;26.70;22.60
66190;DHT22;52992;52.084;5.412;2023-05-19T14:07:34;26.80;22.80
66190;DHT22;52992;52.084;5.412;2023-05-19T14:10:02;26.80;23.20
66190;DHT22;52992;52.084;5.412;2023-05-19T14:12:31;26.80;23.50
66190;DHT22;52992;52.084;5.412;2023-05-19T14:15:18;26.80;23.70
66190;DHT22;52992;52.084;5.412;2023-05-19T14:17:45;26.70;22.90
66190;DHT22;52992;52.084;5.412;2023-05-19T14:20:14;26.50;22.60
66190;DHT22;52992;52.084;5.412;2023-05-19T14:22:41;26.40;22.90
66190;DHT22;52992;52.084;5.412;2023-05-19T14:25:08;26.20;24.00
66190;DHT22;52992;52.084;5.412;2023-05-19T14:27:35;26.10;23.80
66190;DHT22;52992;52.084;5.412;2023-05-19T14:30:02;25.90;23.30
66190;DHT22;52992;52.084;5.412;2023-05-19T14:32:29;25.80;23.80
66190;DHT22;52992;52.084;5.412;2023-05-19T14:34:56;25.80;24.00
66190;DHT22;52992;52.084;5.412;2023-05-19T14:37:23;25.80;23.70
66190;DHT22;52992;52.084;5.412;2023-05-19T14:39:53;25.70;24.00
66190;DHT22;52992;52.084;5.412;2023-05-19T14:42:20;25.60;24.40
66190;DHT22;52992;52.084;5.412;2023-05-19T14:44:47;25.50;24.10
66190;DHT22;52992;52.084;5.412;2023-05-19T14:47:14;25.50;24.50
66190;DHT22;52992;52.084;5.412;2023-05-19T14:49:41;25.40;24.80
66190;DHT22;52992;52.084;5.412;2023-05-19T14:52:08;25.30;24.30
66190;DHT22;52992;52.084;5.412;2023-05-19T14:54:35;25.20;24.90
66190;DHT22;52992;52.084;5.412;2023-05-19T14:57:02;25.30;25.10
66190;DHT22;52992;52.084;5.412;2023-05-19T14:59:30;25.20;25.20
66190;DHT22;52992;52.084;5.412;2023-05-19T15:01:57;25.10;25.20
66190;DHT22;52992;52.084;5.412;2023-05-19T15:04:23;25.10;25.40
66190;DHT22;52992;52.084;5.412;2023-05-19T15:06:50;25.10;25.00
66190;DHT22;52992;52.084;5.412;2023-05-19T15:09:35;25.00;25.90
66190;DHT22;52992;52.084;5.412;2023-05-19T15:12:02;25.00;25.20
66190;DHT22;52992;52.084;5.412;2023-05-19T15:14:29;24.90;25.70
66190;DHT22;52992;52.084;5.412;2023-05-19T15:16:57;24.90;25.90
66190;DHT22;52992;52.084;5.412;2023-05-19T15:19:24;25.00;26.00
66190;DHT22;52992;52.084;5.412;2023-05-19T15:21:51;25.00;25.60
66190;DHT22;52992;52.084;5.412;2023-05-19T15:24:18;24.90;25.30
66190;DHT22;52992;52.084;5.412;2023-05-19T15:26:45;24.80;24.90
66190;DHT22;52992;52.084;5.412;2023-05-19T15:29:12;24.80;25.10
66190;DHT22;52992;52.084;5.412;2023-05-19T15:31:40;24.80;25.50
66190;DHT22;52992;52.084;5.412;2023-05-19T15:34:07;24.80;25.70
66190;DHT22;52992;52.084;5.412;2023-05-19T15:36:34;24.80;25.90
66190;DHT22;52992;52.084;5.412;2023-05-19T15:39:01;24.80;25.60
66190;DHT22;52992;52.084;5.412;2023-05-19T15:41:29;24.90;25.60
66190;DHT22;52992;52.084;5.412;2023-05-19T15:43:56;24.90;25.90
66190;DHT22;52992;52.084;5.412;2023-05-19T15:46:25;25.00;25.90
66190;DHT22;52992;52.084;5.412;2023-05-19T15:48:52;25.00;25.80
66190;DHT22;52992;52.084;5.412;2023-05-19T15:51:19;25.00;25.90
66190;DHT22;52992;52.084;5.412;2023-05-19T15:53:46;24.90;26.10
66190;DHT22;52992;52.084;5.412;2023-05-19T15:56:13;24.90;26.50
66190;DHT22;52992;52.084;5.412;2023-05-19T15:58:41;24.80;26.30
66190;DHT22;52992;52.084;5.412;2023-05-19T16:01:08;24.80;26.40
66190;DHT22;52992;52.084;5.412;2023-05-19T16:03:35;24.90;26.50
66190;DHT22;52992;52.084;5.412;2023-05-19T16:06:02;25.00;25.50
66190;DHT22;52992;52.084;5.412;2023-05-19T16:08:30;25.20;25.70
66190;DHT22;52992;52.084;5.412;2023-05-19T16:10:57;25.30;25.90
66190;DHT22;52992;52.084;5.412;2023-05-19T16:13:23;25.40;25.90
66190;DHT22;52992;52.084;5.412;2023-05-19T16:15:50;25.30;26.10
66190;DHT22;52992;52.084;5.412;2023-05-19T16:18:18;25.10;26.30
66190;DHT22;52992;52.084;5.412;2023-05-19T16:20:45;24.90;26.30
66190;DHT22;52992;52.084;5.412;2023-05-19T16:23:12;24.80;26.20